createdAt,value
2022-11-16T00:02:07.887Z,12.80
2022-11-16T00:04:34.823Z,12.60
2022-11-16T00:07:04.194Z,12.40
2022-11-16T00:09:32.034Z,12.40
2022-11-16T00:12:02.059Z,12.50
2022-11-16T00:14:32.517Z,12.70
2022-11-16T00:16:59.950Z,12.60
2022-11-16T00:19:27.590Z,12.50
2022-11-16T00:21:54.770Z,13.10
2022-11-16T00:24:23.574Z,13.00
2022-11-16T00:26:52.963Z,12.90
2022-11-16T00:29:23.921Z,13.80
2022-11-16T00:31:51.712Z,13.70
2022-11-16T00:34:19.041Z,13.70
2022-11-16T00:36:46.469Z,13.30
2022-11-16T00:39:16.094Z,13.30
2022-11-16T00:41:44.004Z,13.00
2022-11-16T00:44:11.826Z,12.80
2022-11-16T00:46:38.927Z,12.90
2022-11-16T00:49:06.466Z,12.90
2022-11-16T00:51:34.682Z,12.90
2022-11-16T00:54:02.132Z,12.90
2022-11-16T00:56:28.877Z,12.90
2022-11-16T00:58:55.629Z,13.10
2022-11-16T01:01:22.610Z,13.20
2022-11-16T01:03:49.506Z,13.20
2022-11-16T01:06:17.949Z,13.40
2022-11-16T01:08:45.291Z,12.90
2022-11-16T01:11:33.981Z,13.20
2022-11-16T01:14:04.893Z,12.90
2022-11-16T01:16:31.923Z,13.20
2022-11-16T01:18:58.825Z,13.20
2022-11-16T01:21:25.949Z,13.10
2022-11-16T01:23:52.749Z,12.90
2022-11-16T01:26:19.943Z,13.30
2022-11-16T01:28:46.836Z,13.00
2022-11-16T01:31:13.896Z,12.80
2022-11-16T01:33:40.817Z,12.70
2022-11-16T01:36:15.167Z,12.70
2022-11-16T01:38:45.498Z,12.90
2022-11-16T01:41:16.279Z,12.50
2022-11-16T01:43:56.471Z,12.30
2022-11-16T01:46:25.204Z,12.20
2022-11-16T01:49:01.819Z,12.10
2022-11-16T01:51:29.329Z,12.10
2022-11-16T01:53:57.382Z,12.40
2022-11-16T01:56:25.615Z,12.10
2022-11-16T01:58:53.164Z,12.10
2022-11-16T02:01:20.018Z,12.40
2022-11-16T02:03:46.786Z,12.40
2022-11-16T02:06:27.026Z,12.70
2022-11-16T02:09:41.600Z,12.40
2022-11-16T02:12:32.439Z,12.50
2022-11-16T02:15:29.466Z,12.50
2022-11-16T02:18:21.345Z,12.60
2022-11-16T02:21:02.738Z,12.60
2022-11-16T02:24:02.715Z,12.40
2022-11-16T02:26:44.410Z,12.90
2022-11-16T02:29:43.037Z,12.80
2022-11-16T02:32:29.313Z,12.60
2022-11-16T02:35:13.895Z,12.30
2022-11-16T02:37:51.705Z,12.10
2022-11-16T02:40:22.465Z,12.30
2022-11-16T02:43:06.700Z,12.10
2022-11-16T02:45:40.502Z,12.30
2022-11-16T02:48:33.813Z,12.60
2022-11-16T02:51:02.367Z,12.20
2022-11-16T02:53:33.493Z,12.40
2022-11-16T02:56:00.238Z,12.40
2022-11-16T02:58:27.323Z,12.60
2022-11-16T03:01:09.018Z,12.90
2022-11-16T03:03:45.151Z,12.70
2022-11-16T03:06:34.489Z,12.30
2022-11-16T03:09:11.681Z,12.00
2022-11-16T03:12:01.504Z,12.10
2022-11-16T03:14:45.925Z,11.80
2022-11-16T03:17:41.797Z,11.90
2022-11-16T03:20:32.033Z,12.00
2022-11-16T03:23:04.976Z,12.20
2022-11-16T03:26:07.904Z,11.70
2022-11-16T03:29:02.722Z,12.00
2022-11-16T03:31:39.582Z,11.90
2022-11-16T03:34:12.933Z,11.80
2022-11-16T03:36:42.922Z,11.80
2022-11-16T03:39:20.592Z,11.90
2022-11-16T03:41:59.720Z,11.70
2022-11-16T03:44:50.859Z,11.80
2022-11-16T03:47:28.146Z,11.80
2022-11-16T03:50:02.315Z,11.70
2022-11-16T03:52:33.134Z,11.70
2022-11-16T03:54:59.866Z,11.70
2022-11-16T03:57:27.160Z,11.60
2022-11-16T03:59:53.924Z,11.70
2022-11-16T04:02:20.826Z,11.70
2022-11-16T04:05:06.009Z,11.70
2022-11-16T04:07:51.408Z,12.30
2022-11-16T04:10:37.049Z,12.10
2022-11-16T04:13:23.238Z,11.90
2022-11-16T04:16:08.588Z,11.90
2022-11-16T04:18:53.934Z,12.00
2022-11-16T04:21:55.947Z,12.00
2022-11-16T04:24:26.413Z,12.00
2022-11-16T04:27:17.658Z,12.20
2022-11-16T04:29:44.433Z,11.80
2022-11-16T04:32:29.537Z,12.00
2022-11-16T04:35:15.211Z,12.40
2022-11-16T04:37:52.335Z,11.90
2022-11-16T04:40:22.482Z,12.30
2022-11-16T04:43:00.489Z,11.80
2022-11-16T04:45:46.529Z,12.20
2022-11-16T04:48:15.290Z,11.70
2022-11-16T04:50:42.729Z,12.40
2022-11-16T04:53:09.871Z,12.00
2022-11-16T04:55:36.825Z,11.90
2022-11-16T04:58:04.809Z,11.90
2022-11-16T05:00:49.511Z,11.80
2022-11-16T05:03:39.700Z,11.80
2022-11-16T05:06:06.892Z,11.80
2022-11-16T05:09:04.656Z,11.70
2022-11-16T05:12:05.206Z,11.80
2022-11-16T05:15:05.867Z,11.80
2022-11-16T05:17:33.133Z,11.70
2022-11-16T05:20:18.280Z,11.90
2022-11-16T05:22:45.028Z,11.90
2022-11-16T05:25:11.961Z,11.70
2022-11-16T05:27:38.760Z,11.70
2022-11-16T05:30:07.635Z,11.70
2022-11-16T05:32:34.482Z,11.90
2022-11-16T05:35:01.213Z,11.50
2022-11-16T05:37:29.083Z,12.10
2022-11-16T05:39:56.907Z,11.60
2022-11-16T05:42:23.797Z,11.50
2022-11-16T05:44:50.522Z,11.60
2022-11-16T05:47:17.279Z,11.40
2022-11-16T05:49:44.025Z,11.50
2022-11-16T05:52:10.810Z,11.80
2022-11-16T05:54:37.552Z,11.60
2022-11-16T05:57:04.520Z,11.50
2022-11-16T05:59:31.359Z,11.80
2022-11-16T06:01:58.096Z,11.60
2022-11-16T06:04:25.085Z,11.50
2022-11-16T06:06:52.274Z,11.40
2022-11-16T06:09:19.083Z,11.60
2022-11-16T06:11:45.838Z,11.60
2022-11-16T06:14:12.555Z,11.40
2022-11-16T06:16:39.356Z,11.50
2022-11-16T06:19:06.144Z,11.60
2022-11-16T06:21:33.058Z,11.60
2022-11-16T06:23:59.968Z,11.60
2022-11-16T06:26:26.838Z,11.70
2022-11-16T06:28:54.857Z,11.70
2022-11-16T06:31:21.917Z,11.80
2022-11-16T06:33:48.648Z,11.80
2022-11-16T06:36:15.424Z,11.70
2022-11-16T06:38:42.136Z,11.70
2022-11-16T06:41:08.905Z,11.60
2022-11-16T06:43:35.649Z,11.60
2022-11-16T06:46:02.452Z,11.90
2022-11-16T06:48:31.071Z,11.80
2022-11-16T06:50:57.949Z,11.70
2022-11-16T06:53:28.966Z,11.90
2022-11-16T06:56:01.466Z,11.70
2022-11-16T06:58:31.517Z,11.90
2022-11-16T07:01:05.910Z,11.60
2022-11-16T07:03:32.785Z,12.00
2022-11-16T07:05:59.522Z,11.60
2022-11-16T07:08:27.855Z,11.80
2022-11-16T07:10:54.674Z,11.80
2022-11-16T07:13:21.391Z,11.50
2022-11-16T07:15:48.131Z,11.50
2022-11-16T07:18:14.865Z,11.60
2022-11-16T07:20:41.591Z,11.60
2022-11-16T07:23:13.843Z,11.70
2022-11-16T07:25:40.996Z,11.40
2022-11-16T07:28:07.721Z,11.60
2022-11-16T07:30:34.457Z,11.60
2022-11-16T07:33:01.261Z,11.40
2022-11-16T07:35:28.298Z,11.40
2022-11-16T07:37:55.110Z,11.30
2022-11-16T07:40:21.948Z,11.40
2022-11-16T07:42:49.300Z,11.50
2022-11-16T07:45:16.112Z,11.50
2022-11-16T07:47:42.866Z,11.30
2022-11-16T07:50:10.921Z,11.50
2022-11-16T07:52:38.029Z,11.50
2022-11-16T07:55:05.800Z,11.60
2022-11-16T07:57:32.565Z,11.80
2022-11-16T07:59:59.505Z,11.60
2022-11-16T08:02:26.262Z,12.00
2022-11-16T08:04:53.120Z,11.60
2022-11-16T08:07:19.971Z,11.80
2022-11-16T08:09:46.838Z,11.80
2022-11-16T08:12:13.780Z,11.90
2022-11-16T08:14:40.554Z,11.80
2022-11-16T08:17:08.293Z,11.50
2022-11-16T08:19:36.474Z,11.80
2022-11-16T08:22:03.735Z,12.00
2022-11-16T08:24:30.634Z,12.00
2022-11-16T08:26:58.688Z,11.80
2022-11-16T08:29:26.542Z,11.80
2022-11-16T08:31:54.215Z,11.90
2022-11-16T08:34:21.387Z,12.10
2022-11-16T08:36:48.261Z,12.40
2022-11-16T08:39:15.079Z,12.70
2022-11-16T08:41:42.250Z,12.40
2022-11-16T08:44:09.093Z,12.20
2022-11-16T08:46:35.880Z,12.40
2022-11-16T08:49:02.648Z,12.70
2022-11-16T08:51:29.446Z,12.40
2022-11-16T08:53:58.003Z,12.60
2022-11-16T08:56:27.068Z,12.60
2022-11-16T08:58:58.474Z,13.10
2022-11-16T09:01:29.301Z,12.50
2022-11-16T09:03:56.660Z,12.50
2022-11-16T09:06:25.684Z,13.10
2022-11-16T09:08:53.172Z,12.80
2022-11-16T09:11:23.566Z,12.50
2022-11-16T09:13:53.377Z,12.90
2022-11-16T09:16:21.334Z,13.00
2022-11-16T09:18:50.982Z,12.60
2022-11-16T09:21:23.991Z,12.70
2022-11-16T09:23:51.456Z,13.20
2022-11-16T09:26:21.265Z,12.90
2022-11-16T09:28:55.532Z,13.10
2022-11-16T09:31:23.743Z,12.90
2022-11-16T09:33:51.089Z,13.30
2022-11-16T09:36:17.936Z,12.90
2022-11-16T09:39:19.147Z,13.10
2022-11-16T09:42:33.874Z,13.10
2022-11-16T09:45:27.340Z,12.80
2022-11-16T09:48:02.246Z,12.90
2022-11-16T09:50:37.744Z,12.70
2022-11-16T09:53:37.468Z,12.70
2022-11-16T09:56:37.534Z,12.70
2022-11-16T09:59:13.500Z,12.70
2022-11-16T10:02:02.861Z,12.80
2022-11-16T10:04:38.332Z,12.70
2022-11-16T10:07:16.926Z,13.00
2022-11-16T10:09:46.400Z,12.90
2022-11-16T10:12:43.941Z,13.00
2022-11-16T10:15:41.766Z,12.60
2022-11-16T10:18:46.598Z,13.20
2022-11-16T10:21:32.989Z,12.90
2022-11-16T10:24:24.245Z,13.10
2022-11-16T10:27:22.755Z,13.50
2022-11-16T10:30:03.016Z,13.70
2022-11-16T10:32:31.403Z,13.50
2022-11-16T10:35:31.503Z,13.70
2022-11-16T10:38:00.270Z,13.20
2022-11-16T10:40:36.425Z,13.50
2022-11-16T10:43:17.668Z,13.20
2022-11-16T10:45:55.777Z,13.70
2022-11-16T10:48:42.504Z,13.30
2022-11-16T10:51:10.649Z,13.70
2022-11-16T10:53:39.879Z,14.20
2022-11-16T10:56:30.048Z,14.10
2022-11-16T10:59:02.855Z,14.20
2022-11-16T11:01:40.264Z,14.50
2022-11-16T11:04:26.162Z,14.80
2022-11-16T11:07:15.443Z,15.10
2022-11-16T11:09:43.207Z,14.30
2022-11-16T11:12:37.681Z,14.80
2022-11-16T11:15:26.815Z,15.10
2022-11-16T11:18:32.721Z,15.10
2022-11-16T11:21:20.849Z,14.80
2022-11-16T11:23:53.525Z,14.20
2022-11-16T11:26:37.192Z,14.10
2022-11-16T11:29:22.548Z,13.50
2022-11-16T11:31:53.939Z,14.10
2022-11-16T11:34:35.071Z,14.60
2022-11-16T11:37:03.975Z,15.10
2022-11-16T11:39:37.597Z,14.90
2022-11-16T11:42:09.199Z,14.30
2022-11-16T11:44:58.615Z,14.30
2022-11-16T11:48:00.060Z,14.10
2022-11-16T11:51:10.158Z,14.00
2022-11-16T11:54:01.207Z,14.70
2022-11-16T11:56:31.960Z,14.80
2022-11-16T11:58:58.907Z,14.70
2022-11-16T12:01:55.823Z,14.80
2022-11-16T12:04:44.457Z,14.60
2022-11-16T12:07:43.740Z,14.80
2022-11-16T12:10:28.426Z,14.40
2022-11-16T12:13:39.177Z,15.00
2022-11-16T12:16:19.880Z,14.70
2022-11-16T12:19:28.571Z,14.70
2022-11-16T12:22:31.935Z,14.50
2022-11-16T12:25:26.512Z,14.70
2022-11-16T12:28:31.577Z,14.40
2022-11-16T12:31:32.177Z,14.50
2022-11-16T12:34:10.870Z,14.80
2022-11-16T12:37:03.269Z,14.40
2022-11-16T12:39:50.724Z,14.20
2022-11-16T12:42:44.682Z,14.10
2022-11-16T12:45:48.842Z,14.10
2022-11-16T12:48:24.270Z,14.10
2022-11-16T12:51:30.372Z,14.60
2022-11-16T12:55:03.889Z,14.80
2022-11-16T12:58:03.679Z,14.60
2022-11-16T13:00:44.153Z,14.70
2022-11-16T13:03:34.046Z,14.10
2022-11-16T13:06:10.289Z,14.40
2022-11-16T13:08:47.741Z,14.30
2022-11-16T13:11:18.799Z,13.90
2022-11-16T13:13:52.920Z,14.50
2022-11-16T13:16:22.179Z,14.80
2022-11-16T13:18:49.289Z,14.30
2022-11-16T13:21:43.703Z,14.00
2022-11-16T13:24:44.212Z,14.50
2022-11-16T13:27:34.481Z,14.20
2022-11-16T13:30:11.618Z,14.60
2022-11-16T13:33:31.147Z,14.30
2022-11-16T13:35:57.998Z,15.30
2022-11-16T13:38:52.473Z,14.60
2022-11-16T13:41:34.362Z,14.70
2022-11-16T13:44:21.062Z,14.20
2022-11-16T13:47:07.274Z,14.90
2022-11-16T13:49:42.912Z,14.00
2022-11-16T13:52:41.037Z,14.60
2022-11-16T13:55:26.860Z,13.90
2022-11-16T13:57:56.824Z,14.50
2022-11-16T14:00:31.081Z,14.10
2022-11-16T14:03:21.083Z,14.40
2022-11-16T14:05:50.954Z,14.40
2022-11-16T14:08:26.479Z,15.20
2022-11-16T14:10:53.146Z,15.10
2022-11-16T14:13:52.075Z,15.30
2022-11-16T14:16:21.559Z,15.20
2022-11-16T14:18:56.120Z,15.20
2022-11-16T14:21:42.294Z,15.40
2022-11-16T14:24:43.030Z,15.10
2022-11-16T14:27:36.202Z,15.60
2022-11-16T14:30:26.341Z,15.40
2022-11-16T14:32:56.043Z,15.10
2022-11-16T14:35:39.427Z,14.30
2022-11-16T14:38:26.237Z,14.30
2022-11-16T14:40:59.169Z,14.40
2022-11-16T14:43:41.593Z,15.20
2022-11-16T14:46:22.504Z,14.40
2022-11-16T14:48:50.211Z,14.80
2022-11-16T14:51:24.673Z,14.70
2022-11-16T14:53:59.401Z,15.60
2022-11-16T14:56:26.438Z,15.90
2022-11-16T14:58:56.918Z,15.80
2022-11-16T15:01:34.366Z,15.50
2022-11-16T15:04:06.495Z,15.30
2022-11-16T15:06:52.626Z,15.80
2022-11-16T15:09:31.445Z,15.10
2022-11-16T15:12:19.885Z,14.90
2022-11-16T15:14:53.512Z,14.90
2022-11-16T15:17:27.256Z,14.70
2022-11-16T15:20:19.901Z,14.40
2022-11-16T15:22:52.836Z,14.10
2022-11-16T15:25:46.691Z,14.10
2022-11-16T15:28:19.563Z,14.00
2022-11-16T15:30:51.867Z,14.20
2022-11-16T15:33:25.682Z,14.40
2022-11-16T15:35:55.335Z,14.40
2022-11-16T15:38:25.751Z,14.20
2022-11-16T15:40:59.554Z,13.80
2022-11-16T15:43:32.574Z,13.90
2022-11-16T15:46:00.642Z,14.10
2022-11-16T15:48:28.179Z,13.80
2022-11-16T15:51:13.874Z,14.20
2022-11-16T15:53:47.477Z,13.70
2022-11-16T15:56:25.599Z,13.90
2022-11-16T15:58:55.120Z,14.10
2022-11-16T16:01:22.650Z,13.50
2022-11-16T16:03:58.972Z,14.00
2022-11-16T16:06:54.810Z,13.80
2022-11-16T16:09:29.506Z,13.60
2022-11-16T16:12:19.322Z,13.80
2022-11-16T16:14:48.963Z,14.00
2022-11-16T16:17:30.519Z,13.80
2022-11-16T16:20:04.049Z,14.20
2022-11-16T16:22:36.648Z,14.30
2022-11-16T16:25:06.152Z,14.20
2022-11-16T16:27:39.473Z,14.40
2022-11-16T16:30:08.648Z,14.40
2022-11-16T16:32:37.827Z,14.30
2022-11-16T16:35:08.507Z,14.60
2022-11-16T16:37:35.984Z,14.70
2022-11-16T16:40:03.077Z,14.40
2022-11-16T16:42:29.881Z,14.30
2022-11-16T16:45:00.084Z,14.30
2022-11-16T16:47:26.861Z,14.50
2022-11-16T16:49:53.645Z,14.00
2022-11-16T16:52:20.484Z,14.30
2022-11-16T16:54:47.365Z,14.30
2022-11-16T16:57:16.141Z,14.50
2022-11-16T16:59:45.189Z,14.60
2022-11-16T17:02:12.925Z,14.40
2022-11-16T17:04:40.331Z,14.30
2022-11-16T17:07:07.458Z,14.20
2022-11-16T17:09:34.249Z,14.40
2022-11-16T17:12:00.982Z,14.30
2022-11-16T17:14:27.751Z,14.20
2022-11-16T17:16:54.521Z,14.20
2022-11-16T17:19:21.920Z,14.30
2022-11-16T17:21:48.862Z,13.90
2022-11-16T17:24:15.603Z,14.00
2022-11-16T17:26:42.486Z,14.00
2022-11-16T17:29:09.222Z,13.90
2022-11-16T17:31:36.247Z,13.80
2022-11-16T17:34:03.054Z,13.70
2022-11-16T17:36:29.812Z,14.30
2022-11-16T17:38:56.565Z,14.40
2022-11-16T17:41:23.909Z,14.00
2022-11-16T17:43:56.552Z,13.90
2022-11-16T17:46:26.316Z,13.80
2022-11-16T17:48:56.626Z,13.70
2022-11-16T17:51:30.041Z,13.80
2022-11-16T17:53:57.364Z,14.00
2022-11-16T17:56:28.682Z,13.90
2022-11-16T17:59:01.255Z,14.20
2022-11-16T18:01:28.709Z,14.20
2022-11-16T18:03:56.114Z,14.20
2022-11-16T18:06:25.720Z,13.80
2022-11-16T18:09:03.120Z,14.00
2022-11-16T18:11:32.682Z,14.00
2022-11-16T18:14:02.296Z,14.10
2022-11-16T18:16:32.563Z,14.10
2022-11-16T18:19:03.305Z,14.10
2022-11-16T18:21:31.022Z,14.00
2022-11-16T18:24:01.540Z,14.20
2022-11-16T18:26:35.325Z,13.90
2022-11-16T18:29:02.518Z,14.00
2022-11-16T18:31:30.276Z,14.30
2022-11-16T18:33:57.388Z,14.20
2022-11-16T18:36:26.742Z,13.90
2022-11-16T18:38:53.968Z,14.10
2022-11-16T18:41:24.704Z,14.00
2022-11-16T18:43:59.873Z,13.50
2022-11-16T18:46:30.273Z,13.90
2022-11-16T18:49:00.635Z,13.80
2022-11-16T18:51:31.227Z,13.60
2022-11-16T18:54:00.887Z,13.50
2022-11-16T18:56:30.855Z,13.60
2022-11-16T18:59:00.771Z,13.60
2022-11-16T19:01:30.417Z,13.10
2022-11-16T19:04:00.476Z,12.80
2022-11-16T19:06:30.696Z,13.10
2022-11-16T19:08:59.854Z,12.90
2022-11-16T19:11:28.669Z,12.80
2022-11-16T19:14:04.815Z,12.70
2022-11-16T19:16:32.061Z,12.80
2022-11-16T19:18:59.965Z,12.90
2022-11-16T19:21:40.017Z,13.30
2022-11-16T19:24:13.042Z,13.70
2022-11-16T19:26:42.325Z,13.60
2022-11-16T19:29:18.596Z,13.60
2022-11-16T19:31:52.916Z,13.80
2022-11-16T19:34:20.170Z,13.70
2022-11-16T19:36:49.880Z,13.90
2022-11-16T19:39:19.588Z,13.90
2022-11-16T19:41:46.842Z,13.90
2022-11-16T19:44:20.208Z,14.10
2022-11-16T19:46:57.018Z,13.90
2022-11-16T19:49:24.442Z,14.00
2022-11-16T19:52:05.455Z,14.00
2022-11-16T19:54:34.756Z,14.00
2022-11-16T19:57:03.342Z,14.10
2022-11-16T19:59:33.668Z,13.60
2022-11-16T20:02:00.828Z,13.90
2022-11-16T20:04:32.879Z,14.00
2022-11-16T20:07:02.437Z,14.00
2022-11-16T20:09:32.175Z,14.00
2022-11-16T20:12:02.331Z,13.80
2022-11-16T20:14:29.469Z,13.90
2022-11-16T20:16:59.077Z,14.00
2022-11-16T20:19:31.535Z,13.70
2022-11-16T20:22:00.149Z,14.00
2022-11-16T20:24:27.379Z,14.10
2022-11-16T20:26:57.057Z,14.10
2022-11-16T20:29:26.678Z,14.10
2022-11-16T20:31:55.967Z,14.10
2022-11-16T20:34:25.830Z,14.00
2022-11-16T20:36:58.101Z,14.10
2022-11-16T20:39:33.810Z,14.00
2022-11-16T20:42:00.901Z,14.30
2022-11-16T20:44:34.813Z,14.20
2022-11-16T20:47:11.750Z,13.90
2022-11-16T20:49:39.378Z,13.80
2022-11-16T20:52:11.468Z,14.00
2022-11-16T20:54:45.380Z,13.90
2022-11-16T20:57:12.814Z,14.30
2022-11-16T20:59:53.226Z,14.20
2022-11-16T21:02:28.895Z,14.30
2022-11-16T21:05:00.436Z,14.00
2022-11-16T21:07:30.904Z,13.90
2022-11-16T21:10:16.563Z,13.90
2022-11-16T21:13:01.987Z,14.20
2022-11-16T21:15:31.646Z,14.10
2022-11-16T21:17:58.950Z,14.20
2022-11-16T21:20:28.526Z,14.20
2022-11-16T21:22:55.867Z,13.90
2022-11-16T21:25:22.966Z,14.00
2022-11-16T21:27:49.770Z,14.00
2022-11-16T21:30:16.829Z,14.10
2022-11-16T21:32:43.614Z,14.30
2022-11-16T21:35:10.362Z,14.20
2022-11-16T21:37:37.100Z,14.60
2022-11-16T21:40:04.202Z,14.40
2022-11-16T21:42:31.002Z,14.50
2022-11-16T21:44:57.749Z,14.30
2022-11-16T21:47:24.562Z,14.20
2022-11-16T21:50:24.368Z,14.30
2022-11-16T21:52:38.004Z,14.50
2022-11-16T21:55:05.244Z,14.50
2022-11-16T21:57:31.981Z,14.80
2022-11-16T22:00:00.850Z,14.40
2022-11-16T22:02:27.652Z,14.80
2022-11-16T22:05:12.791Z,14.70
2022-11-16T22:07:41.621Z,14.90
2022-11-16T22:10:12.907Z,14.70
2022-11-16T22:12:39.626Z,14.60
2022-11-16T22:15:07.484Z,14.60
2022-11-16T22:17:34.263Z,14.00
2022-11-16T22:20:00.997Z,14.00
2022-11-16T22:22:27.730Z,14.20
2022-11-16T22:24:54.625Z,14.10
2022-11-16T22:27:21.398Z,14.40
2022-11-16T22:29:48.206Z,14.60
2022-11-16T22:32:14.942Z,14.60
2022-11-16T22:34:41.714Z,14.50
2022-11-16T22:37:08.445Z,14.20
2022-11-16T22:39:36.570Z,14.60
2022-11-16T22:42:04.119Z,14.40
2022-11-16T22:44:30.893Z,14.40
2022-11-16T22:46:57.666Z,14.50
2022-11-16T22:49:24.955Z,14.20
2022-11-16T22:51:51.887Z,14.20
2022-11-16T22:54:18.737Z,14.70
2022-11-16T22:56:47.650Z,14.70
2022-11-16T22:59:14.455Z,14.40
2022-11-16T23:01:41.209Z,14.40
2022-11-16T23:04:07.967Z,14.60
2022-11-16T23:06:34.702Z,14.60
2022-11-16T23:09:01.516Z,14.10
2022-11-16T23:11:46.662Z,14.10
2022-11-16T23:14:34.838Z,14.30
2022-11-16T23:17:02.899Z,14.70
2022-11-16T23:19:48.348Z,13.90
2022-11-16T23:22:38.026Z,14.40
2022-11-16T23:25:26.254Z,14.00
2022-11-16T23:28:10.426Z,14.30
2022-11-16T23:30:40.126Z,13.90
2022-11-16T23:33:07.030Z,14.00
2022-11-16T23:35:33.783Z,14.30
2022-11-16T23:38:03.491Z,13.90
2022-11-16T23:40:33.699Z,13.70
2022-11-16T23:43:19.400Z,14.00
2022-11-16T23:45:46.256Z,13.90
2022-11-16T23:48:15.616Z,14.60
2022-11-16T23:50:43.475Z,14.50
2022-11-16T23:53:11.235Z,14.90
2022-11-16T23:55:39.193Z,14.60
2022-11-16T23:58:08.262Z,14.40
